Flight Track Log - Related Links

Times and Time Zones

All times are in EST time to prevent confusion due to time zone crossing. See the N894KS flight status page for this flight to view local times or setup timezone preferences in your user account.

Time Position Orientation Groundspeed Altitude Reporting Facility
EST Latitude Longitude Course Direction KTS MPH feet Rate Location/Type
Sun 02:43:15 PM 35.9892 -115.1358 148° Southeast 170 196 3,500  Level Los Angeles Center
Sun 02:45:03 PM 35.9303 -115.0906 148° Southeast 250 288 8,300 2,724 Climbing Los Angeles Center
Sun 02:45:47 PM 35.8706 -115.0978 186° South 277 319 10,400 2,667 Climbing Los Angeles Center
Sun 02:46:06 PM 35.8531 -115.0975 179° South 284 327 11,100 2,222 Climbing Los Angeles Center
Sun 02:47:08 PM 35.7633 -115.1158 189° South 318 366 13,400 2,661 Climbing Los Angeles Center
Sun 02:48:10 PM 35.7203 -115.2014 238° Southwest 287 330 16,600 2,323 Climbing Los Angeles Center
Sun 02:49:12 PM 35.6842 -115.2806 241° Southwest 291 335 18,200 2,129 Climbing Los Angeles Center
Sun 02:50:14 PM 35.6122 -115.3786 228° Southwest 318 366 21,000 2,226 Climbing Los Angeles Center
Sun 02:51:16 PM 35.5497 -115.4636 228° Southwest 331 381 22,800 1,742 Climbing Los Angeles Center
Sun 02:52:18 PM 35.4850 -115.5489 227° Southwest 338 389 24,600 1,536 Climbing Los Angeles Center
Sun 02:53:21 PM 35.4278 -115.6278 228° Southwest 342 394 26,000 672 Climbing Los Angeles Center
Sun 02:54:23 PM 35.3553 -115.7458 233° Southwest 361 415 26,000  Level Los Angeles Center
Sun 02:56:39 PM 35.3144 -116.0094 259° West 360 414 26,000  Level Los Angeles Center
Sun 03:00:48 PM 35.2553 -116.5086 277° West 369 425 26,000  Level Los Angeles Center
Sun 03:01:50 PM 35.1553 -116.5653 205° Southwest 395 455 26,000  Level Los Angeles Center
Sun 03:02:52 PM 35.1028 -116.6742 240° Southwest 377 434 26,000  Level Los Angeles Center
Sun 03:04:56 PM 35.0267 -116.9061 280° West 370 426 26,000  Level Los Angeles Center
Sun 03:05:00 PM 35.2487 -116.8505 266° West  Level FlightAware Approximate
Sun 03:05:58 PM 34.9800 -117.0442 248° West 368 423 26,000  Level Los Angeles Center
Sun 03:06:00 PM 35.2582 -116.9529 277° West  Level Estimated
Sun 03:08:03 PM 34.9008 -117.2781 248° West 370 426 24,100  Level Los Angeles Center
Sun 03:09:17 PM 34.8611 -117.3931 247° West 366 421 24,000 -44 Descending Los Angeles Center
Sun 03:10:20 PM 34.8136 -117.5317 247° West 366 421 24,000  Level Los Angeles Center
Sun 03:11:22 PM 34.7750 -117.6478 248° West 366 421 24,000 -435 Level Los Angeles Center
Sun 03:12:24 PM 34.7358 -117.7617 247° West 363 418 23,100 -1,016 Descending Los Angeles Center
Sun 03:13:26 PM 34.6881 -117.8986 247° West 366 421 21,900 -1,065 Descending Los Angeles Center
Sun 03:14:28 PM 34.6494 -118.0108 247° West 361 415 20,900 -968 Descending Los Angeles Center
Sun 03:15:30 PM 34.6731 -118.1200 285° West 347 399 19,900 -960 Descending Los Angeles Center
Sun 03:16:33 PM 34.7400 -118.2064 313° West 349 402 18,900 -1,008 Descending Los Angeles Center
Sun 03:17:35 PM 34.8075 -118.2942 313° West 352 405 17,800 -1,113 Descending Los Angeles Center
Sun 03:18:37 PM 34.8719 -118.3783 313° West 342 394 16,600 -1,306 Descending Los Angeles Center
Sun 03:19:39 PM 34.9344 -118.4597 313° West 331 381 15,100 -1,645 Descending Los Angeles Center
Sun 03:21:43 PM 35.0725 -118.6328 316° Northwest 307 353 11,500 -1,505 Descending Los Angeles Center
Sun 03:24:50 PM 35.2289 -118.8078 321° Northwest 245 282 7,300 -1,348 Descending Los Angeles Center
Sun 03:27:00 PM 35.3657 -118.9744 321° Northwest  Level Estimated
Sun 03:30:00 PM 35.4333 -119.0500 321° Northwest  Level FlightAware Approximate
Sun 03:34:00 PM 35.4333 -119.0500 321° Northwest  Level FlightAware Approximate
Sun 03:35:00 PM 35.4339 -119.0577 321° Northwest  Level Estimated

Login

Don't have an account? Register now (free) for customized features, flight alerts, and more!